Astra — PB4187 — position and weather

sailwx.info

Track history (hours):
 
Tides and Currents Weather Stations Pressure Air Temp Water Temp Dewpoint Dewpoint Depression Visibility Wind Speed Wind Dir Waves Ship Positions

Astra

Last reported at 2015-May-28 04:33 UTC. Time now 2015-May-28 06:05 UTC.
Position N 49°03' E 008°18'.

Length 110 m; draft 2.8 m.

Type: Other ship. MMSI: 244650752.

Date/timePositionNaut miles runAvg speedWind from/ knotsBaromVisibWave heightAir tempDewpointWater temp
2015-May-28 04:33N 49°03' E 008°18'1212.2
2015-May-28 03:33N 48°53' E 008°08'4 3.9
2015-May-28 02:33N 48°49' E 008°06'9 8.7
2015-May-28 01:33N 48°43' E 007°57'3 3.4
2015-May-28 00:33N 48°40' E 007°54'63 3.5
2015-May-27 06:33N 47°39' E 007°32'2 1.8
2015-May-27 05:33N 47°38' E 007°33'5 5.1
2015-May-27 04:33N 47°34' E 007°38'1 0.8
2015-May-27 03:34N 47°33' E 007°39'1 0.6
2015-May-27 02:33N 47°33' E 007°39'0 0.0
2015-May-27 01:34N 47°33' E 007°39'0 0.0
2015-May-27 00:33N 47°33' E 007°39'0 0.0
2015-May-26 23:33N 47°33' E 007°39'0 0.0
2015-May-26 22:33N 47°33' E 007°39'0 0.0
2015-May-26 21:33N 47°33' E 007°39'0 0.0
2015-May-26 20:33N 47°33' E 007°39'0 0.0
2015-May-26 19:33N 47°33' E 007°39'0 0.0
2015-May-26 18:33N 47°33' E 007°39'0 0.0
2015-May-26 17:33N 47°33' E 007°39'0 0.0
2015-May-26 16:33N 47°33' E 007°39'0 0.0
2015-May-26 15:33N 47°33' E 007°39'0 0.0
2015-May-26 14:33N 47°33' E 007°39'0 0.0
2015-May-26 13:34N 47°33' E 007°39'1 1.5
2015-May-26 12:34N 47°34' E 007°37'2 1.8
2015-May-26 11:34N 47°34' E 007°35'0 0.0
2015-May-26 10:34N 47°34' E 007°35'3 2.6
2015-May-26 09:33N 47°37' E 007°34'3 2.9
2015-May-26 08:32N 47°39' E 007°31'63 3.7
2015-May-25 15:11N 48°41' E 007°54'1 1.2
2015-May-25 14:19N 48°42' E 007°55'4 4.8
2015-May-25 13:32N 48°45' E 007°58'4 4.1
2015-May-25 12:33N 48°47' E 008°03'4 3.4
2015-May-25 11:21N 48°50' E 008°07'3 3.9
2015-May-25 10:28N 48°54' E 008°08'3 3.8
2015-May-25 09:33N 48°57' E 008°11'4 3.6
2015-May-25 08:33N 48°59' E 008°16'4 3.9
2015-May-25 07:33N 49°02' E 008°18'2 2.1
2015-May-25 06:28N 49°04' E 008°20'0 0.0
2015-May-25 05:31N 49°04' E 008°20'0 0.0
2015-May-25 04:31N 49°04' E 008°20'0 0.0
2015-May-25 03:31N 49°04' E 008°20'0 0.0
2015-May-25 02:31N 49°04' E 008°20'0 0.0
2015-May-25 01:31N 49°04' E 008°20'0 0.0
2015-May-25 00:31N 49°04' E 008°20'0 0.0
2015-May-24 23:28N 49°04' E 008°20'0 0.0
2015-May-24 22:31N 49°04' E 008°20'0 0.0
2015-May-24 21:31N 49°04' E 008°20'0 0.0
2015-May-24 20:31N 49°04' E 008°20'0 0.0
2015-May-24 19:31N 49°04' E 008°20'0 0.0
2015-May-24 18:31N 49°04' E 008°20'0 0.2
2015-May-24 17:31N 49°04' E 008°20'0 0.0
2015-May-24 16:31N 49°04' E 008°20'0 0.0
2015-May-24 15:31N 49°04' E 008°20'0 0.0
2015-May-24 14:31N 49°04' E 008°20'0 0.0
2015-May-24 13:31N 49°04' E 008°20'0 0.0
2015-May-24 12:33N 49°04' E 008°20'0 0.0
2015-May-24 11:33N 49°04' E 008°20'0 0.0
2015-May-24 10:33N 49°04' E 008°20'9 8.9
2015-May-24 09:33N 48°57' E 008°12'10 7.7
2015-May-24 08:17N 48°48' E 008°06'6 8.3
2015-May-24 07:33N 48°45' E 007°58'68 5.2
2015-May-23 18:33N 47°39' E 007°32'2 2.2
2015-May-23 17:31N 47°37' E 007°34'5 4.9
2015-May-23 16:33N 47°34' E 007°38'1 1.5
2015-May-23 15:33N 47°33' E 007°39'0 0.0
2015-May-23 14:33N 47°33' E 007°39'0 0.0
2015-May-23 13:32N 47°33' E 007°39'0 0.0
2015-May-23 12:33N 47°33' E 007°39'0 0.0
2015-May-23 11:33N 47°33' E 007°39'0 0.0
2015-May-23 10:33N 47°33' E 007°39'0 0.0
2015-May-23 09:33N 47°33' E 007°39'0 0.0
2015-May-23 08:33N 47°33' E 007°39'0 0.0
2015-May-23 07:33N 47°33' E 007°39'0 0.0
2015-May-23 06:33N 47°33' E 007°39'1 1.4
2015-May-23 05:33N 47°34' E 007°38'2 2.0
2015-May-23 04:33N 47°35' E 007°35'0 0.0
2015-May-23 03:33N 47°35' E 007°35'0 0.0
2015-May-23 02:33N 47°35' E 007°35'0 0.0
2015-May-23 01:33N 47°35' E 007°35'0 0.0
2015-May-23 00:33N 47°35' E 007°35'3 3.5
2015-May-22 23:33N 47°38' E 007°33'64 4.3
2015-May-22 08:33N 48°41' E 007°54'1 1.1
2015-May-22 07:33N 48°42' E 007°55'5 4.7
2015-May-22 06:30N 48°46' E 007°60'6 5.5
2015-May-22 05:27N 48°49' E 008°06'1 0.9
2015-May-22 04:18N 48°50' E 008°07'3 3.7
2015-May-22 03:33N 48°53' E 008°08'4 3.7
2015-May-22 02:33N 48°56' E 008°11'4 3.6
2015-May-22 01:33N 48°58' E 008°15'4 4.0
2015-May-22 00:33N 49°02' E 008°18'4 4.2
2015-May-21 23:33N 49°05' E 008°21'4 4.1
2015-May-21 22:33N 49°09' E 008°22'4 4.1
2015-May-21 21:33N 49°14' E 008°23'5 4.6
2015-May-21 20:33N 49°17' E 008°28'4 3.3
2015-May-21 19:25N 49°21' E 008°29'105 3.7
2015-May-20 15:21N 50°49' E 007°02'3 2.8
2015-May-20 14:26N 50°52' E 007°01'2 2.3
2015-May-20 13:29N 50°54' E 007°00'4 4.3
2015-May-20 12:30N 50°58' E 006°60'11 3.8
2015-May-20 09:33N 51°08' E 006°51'2 2.1
2015-May-20 08:33N 51°09' E 006°48'3 3.3
2015-May-20 07:33N 51°11' E 006°45'2 2.4
2015-May-20 06:33N 51°13' E 006°45'20 2.4
2015-May-19 22:14N 51°31' E 007°01'1 1.9
2015-May-19 21:29N 51°32' E 007°03'0 0.0
2015-May-19 20:23N 51°32' E 007°03'0 0.0
2015-May-19 19:32N 51°32' E 007°03'0 0.0
2015-May-19 18:29N 51°32' E 007°03'0 0.0
2015-May-19 17:29N 51°32' E 007°03'0 0.0
2015-May-19 16:32N 51°32' E 007°03'0 0.0
2015-May-19 14:32N 51°32' E 007°03'  
Track history (hours):
 
Tides and Currents Weather Stations Pressure Air Temp Water Temp Dewpoint Dewpoint Depression Visibility Wind Speed Wind Dir Waves Ship Positions

Astra

Last reported at 2015-May-28 04:33 UTC. Time now 2015-May-28 06:05 UTC.
Position N 49°03' E 008°18'.

Length 110 m; draft 2.8 m.

Type: Other ship. MMSI: 244650752.

Date/timePositionNaut miles runAvg speedWind from/ knotsBaromVisibWave heightAir tempDewpointWater temp
2015-May-28 04:33N 49°03' E 008°18'1212.2
2015-May-28 03:33N 48°53' E 008°08'4 3.9
2015-May-28 02:33N 48°49' E 008°06'9 8.7
2015-May-28 01:33N 48°43' E 007°57'3 3.4
2015-May-28 00:33N 48°40' E 007°54'63 3.5
2015-May-27 06:33N 47°39' E 007°32'2 1.8
2015-May-27 05:33N 47°38' E 007°33'5 5.1
2015-May-27 04:33N 47°34' E 007°38'1 0.8
2015-May-27 03:34N 47°33' E 007°39'1 0.6
2015-May-27 02:33N 47°33' E 007°39'0 0.0
2015-May-27 01:34N 47°33' E 007°39'0 0.0
2015-May-27 00:33N 47°33' E 007°39'0 0.0
2015-May-26 23:33N 47°33' E 007°39'0 0.0
2015-May-26 22:33N 47°33' E 007°39'0 0.0
2015-May-26 21:33N 47°33' E 007°39'0 0.0
2015-May-26 20:33N 47°33' E 007°39'0 0.0
2015-May-26 19:33N 47°33' E 007°39'0 0.0
2015-May-26 18:33N 47°33' E 007°39'0 0.0
2015-May-26 17:33N 47°33' E 007°39'0 0.0
2015-May-26 16:33N 47°33' E 007°39'0 0.0
2015-May-26 15:33N 47°33' E 007°39'0 0.0
2015-May-26 14:33N 47°33' E 007°39'0 0.0
2015-May-26 13:34N 47°33' E 007°39'1 1.5
2015-May-26 12:34N 47°34' E 007°37'2 1.8
2015-May-26 11:34N 47°34' E 007°35'0 0.0
2015-May-26 10:34N 47°34' E 007°35'3 2.6
2015-May-26 09:33N 47°37' E 007°34'3 2.9
2015-May-26 08:32N 47°39' E 007°31'63 3.7
2015-May-25 15:11N 48°41' E 007°54'1 1.2
2015-May-25 14:19N 48°42' E 007°55'4 4.8
2015-May-25 13:32N 48°45' E 007°58'4 4.1
2015-May-25 12:33N 48°47' E 008°03'4 3.4
2015-May-25 11:21N 48°50' E 008°07'3 3.9
2015-May-25 10:28N 48°54' E 008°08'3 3.8
2015-May-25 09:33N 48°57' E 008°11'4 3.6
2015-May-25 08:33N 48°59' E 008°16'4 3.9
2015-May-25 07:33N 49°02' E 008°18'2 2.1
2015-May-25 06:28N 49°04' E 008°20'0 0.0
2015-May-25 05:31N 49°04' E 008°20'0 0.0
2015-May-25 04:31N 49°04' E 008°20'0 0.0
2015-May-25 03:31N 49°04' E 008°20'0 0.0
2015-May-25 02:31N 49°04' E 008°20'0 0.0
2015-May-25 01:31N 49°04' E 008°20'0 0.0
2015-May-25 00:31N 49°04' E 008°20'0 0.0
2015-May-24 23:28N 49°04' E 008°20'0 0.0
2015-May-24 22:31N 49°04' E 008°20'0 0.0
2015-May-24 21:31N 49°04' E 008°20'0 0.0
2015-May-24 20:31N 49°04' E 008°20'0 0.0
2015-May-24 19:31N 49°04' E 008°20'0 0.0
2015-May-24 18:31N 49°04' E 008°20'0 0.2
2015-May-24 17:31N 49°04' E 008°20'0 0.0
2015-May-24 16:31N 49°04' E 008°20'0 0.0
2015-May-24 15:31N 49°04' E 008°20'0 0.0
2015-May-24 14:31N 49°04' E 008°20'0 0.0
2015-May-24 13:31N 49°04' E 008°20'0 0.0
2015-May-24 12:33N 49°04' E 008°20'0 0.0
2015-May-24 11:33N 49°04' E 008°20'0 0.0
2015-May-24 10:33N 49°04' E 008°20'9 8.9
2015-May-24 09:33N 48°57' E 008°12'10 7.7
2015-May-24 08:17N 48°48' E 008°06'6 8.3
2015-May-24 07:33N 48°45' E 007°58'68 5.2
2015-May-23 18:33N 47°39' E 007°32'2 2.2
2015-May-23 17:31N 47°37' E 007°34'5 4.9
2015-May-23 16:33N 47°34' E 007°38'1 1.5
2015-May-23 15:33N 47°33' E 007°39'0 0.0
2015-May-23 14:33N 47°33' E 007°39'0 0.0
2015-May-23 13:32N 47°33' E 007°39'0 0.0
2015-May-23 12:33N 47°33' E 007°39'0 0.0
2015-May-23 11:33N 47°33' E 007°39'0 0.0
2015-May-23 10:33N 47°33' E 007°39'0 0.0
2015-May-23 09:33N 47°33' E 007°39'0 0.0
2015-May-23 08:33N 47°33' E 007°39'0 0.0
2015-May-23 07:33N 47°33' E 007°39'0 0.0
2015-May-23 06:33N 47°33' E 007°39'1 1.4
2015-May-23 05:33N 47°34' E 007°38'2 2.0
2015-May-23 04:33N 47°35' E 007°35'0 0.0
2015-May-23 03:33N 47°35' E 007°35'0 0.0
2015-May-23 02:33N 47°35' E 007°35'0 0.0
2015-May-23 01:33N 47°35' E 007°35'0 0.0
2015-May-23 00:33N 47°35' E 007°35'3 3.5
2015-May-22 23:33N 47°38' E 007°33'64 4.3
2015-May-22 08:33N 48°41' E 007°54'1 1.1
2015-May-22 07:33N 48°42' E 007°55'5 4.7
2015-May-22 06:30N 48°46' E 007°60'6 5.5
2015-May-22 05:27N 48°49' E 008°06'1 0.9
2015-May-22 04:18N 48°50' E 008°07'3 3.7
2015-May-22 03:33N 48°53' E 008°08'4 3.7
2015-May-22 02:33N 48°56' E 008°11'4 3.6
2015-May-22 01:33N 48°58' E 008°15'4 4.0
2015-May-22 00:33N 49°02' E 008°18'4 4.2
2015-May-21 23:33N 49°05' E 008°21'4 4.1
2015-May-21 22:33N 49°09' E 008°22'4 4.1
2015-May-21 21:33N 49°14' E 008°23'5 4.6
2015-May-21 20:33N 49°17' E 008°28'4 3.3
2015-May-21 19:25N 49°21' E 008°29'105 3.7
2015-May-20 15:21N 50°49' E 007°02'3 2.8
2015-May-20 14:26N 50°52' E 007°01'2 2.3
2015-May-20 13:29N 50°54' E 007°00'4 4.3
2015-May-20 12:30N 50°58' E 006°60'11 3.8
2015-May-20 09:33N 51°08' E 006°51'2 2.1
2015-May-20 08:33N 51°09' E 006°48'3 3.3
2015-May-20 07:33N 51°11' E 006°45'2 2.4
2015-May-20 06:33N 51°13' E 006°45'20 2.4
2015-May-19 22:14N 51°31' E 007°01'1 1.9
2015-May-19 21:29N 51°32' E 007°03'0 0.0
2015-May-19 20:23N 51°32' E 007°03'0 0.0
2015-May-19 19:32N 51°32' E 007°03'0 0.0
2015-May-19 18:29N 51°32' E 007°03'0 0.0
2015-May-19 17:29N 51°32' E 007°03'0 0.0
2015-May-19 16:32N 51°32' E 007°03'0 0.0
2015-May-19 14:32N 51°32' E 007°03'  

Dump ship's entire track history